Time;durP1;ratioP1;P1;durP2;ratioP2;P2;SDS_P1;SDS_P2;PMS_P1;PMS_P2;Temp;Humidity;BMP_temperature;BMP_pressure;BME280_temperature;BME280_humidity;BME280_pressure;Samples;Min_cycle;Max_cycle;Signal;HPM_P1;HPM_P2
2022/08/12 00:43:29;;;;;;;2.78;1.30;;;;;;;17.93;75.88;102025.63;2047861;28;20514;-77
2022/08/12 00:44:30;;;;;;;4.97;1.65;;;;;;;17.89;76.11;102032.09;2048729;28;23354;-76
2022/08/12 00:46:29;;;;;;;5.75;1.67;;;;;;;17.86;75.66;102034.91;2055045;28;27322;-77
2022/08/12 00:47:00;;;;;;;2.03;1.45;;;;;;;17.84;75.65;102030.47;2055780;28;20153;-76
2022/08/12 00:48:02;;;;;;;5.50;1.50;;;;;;;17.81;76.08;102030.56;2039643;29;30286;-76
2022/08/12 00:49:07;;;;;;;3.47;1.38;;;;;;;17.80;76.13;102031.50;2040905;28;20040;-76
2022/08/12 00:50:17;;;;;;;5.22;1.60;;;;;;;17.83;76.37;102025.97;2048418;28;20044;-76
2022/08/12 00:51:19;;;;;;;5.57;1.60;;;;;;;17.81;75.82;102026.03;2047549;28;25312;-75
2022/08/12 00:52:22;;;;;;;4.13;1.27;;;;;;;17.80;76.33;102029.69;2038896;28;31322;-76
2022/08/12 00:53:29;;;;;;;2.78;1.60;;;;;;;17.81;76.14;102023.31;2047966;28;20846;-76
2022/08/12 00:54:55;;;;;;;3.95;1.58;;;;;;;17.76;76.48;102028.00;2055839;28;26959;-76
2022/08/12 00:56:00;;;;;;;3.03;1.40;;;;;;;17.70;75.97;102025.53;2047710;28;20036;-77
2022/08/12 00:57:07;;;;;;;4.25;1.58;;;;;;;17.67;76.26;102028.34;2047928;28;24919;-77
2022/08/12 00:58:16;;;;;;;2.35;1.55;;;;;;;17.66;76.54;102026.59;2048466;28;20083;-77
2022/08/12 00:59:18;;;;;;;6.10;1.53;;;;;;;17.68;76.47;102036.41;2056052;28;30592;-77
2022/08/12 01:00:23;;;;;;;3.70;1.30;;;;;;;17.62;76.88;102033.03;2054671;28;23614;-77
2022/08/12 01:01:25;;;;;;;4.53;1.67;;;;;;;17.56;76.25;102036.84;2048593;28;24101;-78
2022/08/12 01:02:34;;;;;;;2.20;1.58;;;;;;;17.57;76.51;102046.75;2047841;28;26697;-77
2022/08/12 01:12:00;;;;;;;2.50;1.40;;;;;;;17.53;76.55;102045.97;2047917;28;35206;-76
2022/08/12 01:13:04;;;;;;;2.83;1.50;;;;;;;17.54;76.95;102044.13;2047902;28;29714;-77
2022/08/12 01:14:08;;;;;;;5.43;1.80;;;;;;;17.53;76.65;102043.25;2055612;28;27001;-77
2022/08/12 01:15:12;;;;;;;3.10;1.85;;;;;;;17.52;76.74;102041.47;2046836;28;28310;-77
2022/08/12 01:16:21;;;;;;;2.88;1.27;;;;;;;17.49;76.71;102044.28;2047128;28;32323;-77
2022/08/12 01:17:24;;;;;;;2.65;1.70;;;;;;;17.51;76.62;102038.81;2055312;28;24301;-77
2022/08/12 01:18:32;;;;;;;5.60;1.80;;;;;;;17.49;76.35;102044.28;2047782;28;20118;-77
2022/08/12 01:19:34;;;;;;;1.63;1.40;;;;;;;17.53;76.86;102042.34;2040299;28;36911;-78
2022/08/12 01:21:02;;;;;;;4.25;1.88;;;;;;;17.53;76.23;102039.66;2047425;28;24589;-77
2022/08/12 01:22:36;;;;;;;2.85;1.40;;;;;;;17.54;76.40;102042.31;2055592;28;20170;-76
2022/08/12 01:23:49;;;;;;;2.33;1.50;;;;;;;17.52;76.01;102037.91;2049004;28;28029;-78
2022/08/12 01:25:16;;;;;;;2.85;1.40;;;;;;;17.46;76.31;102036.28;2055564;28;31923;-77
2022/08/12 01:26:23;;;;;;;2.17;1.45;;;;;;;17.51;76.35;102045.13;2047629;28;24517;-78
2022/08/12 01:27:27;;;;;;;3.90;1.42;;;;;;;17.46;76.37;102039.00;2047161;28;28743;-76
2022/08/12 01:28:34;;;;;;;3.63;1.52;;;;;;;17.43;75.96;102036.38;2047785;28;31955;-77
2022/08/12 01:29:42;;;;;;;2.13;1.40;;;;;;;17.44;76.06;102043.56;2047686;28;31139;-77
2022/08/12 01:30:48;;;;;;;3.33;1.45;;;;;;;17.47;76.22;102042.59;2055226;28;27483;-77
2022/08/12 01:31:51;;;;;;;5.20;1.67;;;;;;;17.44;75.97;102032.72;2046722;28;32431;-78
2022/08/12 01:32:58;;;;;;;3.13;1.23;;;;;;;17.43;76.08;102041.81;2048004;28;27966;-77
2022/08/12 01:34:04;;;;;;;3.20;1.77;;;;;;;17.42;76.11;102039.13;2047003;28;29853;-77
2022/08/12 01:35:16;;;;;;;5.43;1.73;;;;;;;17.44;75.82;102035.44;2047480;28;27323;-76
2022/08/12 01:36:24;;;;;;;5.55;1.38;;;;;;;17.44;75.48;102032.72;2055724;28;20039;-77
2022/08/12 01:37:35;;;;;;;4.05;1.40;;;;;;;17.43;75.81;102030.97;2046733;28;32001;-77
2022/08/12 01:38:42;;;;;;;3.03;1.23;;;;;;;17.36;75.99;102033.00;2049829;28;26714;-77
2022/08/12 01:39:51;;;;;;;5.78;1.20;;;;;;;17.33;75.86;102035.78;2046616;28;29464;-77
2022/08/12 01:41:16;;;;;;;4.30;1.30;;;;;;;17.37;75.57;102028.44;2052147;28;20841;-77
2022/08/12 01:42:21;;;;;;;4.20;1.20;;;;;;;17.36;75.73;102032.13;2047006;28;24375;-77
2022/08/12 01:43:24;;;;;;;3.05;1.40;;;;;;;17.36;75.57;102034.81;2047125;28;32900;-77
2022/08/12 01:44:30;;;;;;;4.15;1.50;;;;;;;17.35;75.42;102027.63;2055440;28;21364;-77
2022/08/12 01:45:33;;;;;;;2.10;1.40;;;;;;;17.34;75.26;102031.28;2047105;28;32173;-78
2022/08/12 01:46:49;;;;;;;2.38;1.15;;;;;;;17.35;75.28;102030.34;2049374;28;28716;-77
2022/08/12 01:48:22;;;;;;;3.28;1.10;;;;;;;17.34;74.96;102036.69;2053382;28;20102;-78
2022/08/12 01:49:26;;;;;;;3.70;1.20;;;;;;;17.32;75.00;102033.16;2047800;28;20916;-77
2022/08/12 01:51:20;;;;;;;3.25;1.20;;;;;;;17.33;75.29;102029.50;2048004;28;27404;-76
2022/08/12 01:52:53;;;;;;;2.03;1.10;;;;;;;17.28;74.99;102028.78;2046974;28;24948;-77
2022/08/12 01:54:04;;;;;;;3.80;1.30;;;;;;;17.30;75.67;102021.47;2050087;28;33169;-77
2022/08/12 01:55:08;;;;;;;3.00;1.27;;;;;;;17.24;75.27;102024.41;2039449;28;26201;-77
2022/08/12 01:56:13;;;;;;;3.15;1.45;;;;;;;17.28;75.96;102026.97;2040891;28;26512;-77
2022/08/12 01:57:17;;;;;;;3.78;1.27;;;;;;;17.23;75.23;102023.53;2054396;28;33076;-77
2022/08/12 02:00:18;;;;;;;2.05;1.10;;;;;;;17.17;75.48;102027.34;2047706;28;21076;-76
2022/08/12 02:01:33;;;;;;;2.40;0.95;;;;;;;17.19;75.67;102027.25;2054909;28;23218;-79
2022/08/12 02:02:46;;;;;;;2.70;1.20;;;;;;;17.15;75.85;102031.88;2054214;28;33826;-76
2022/08/12 02:12:42;;;;;;;2.60;1.00;;;;;;;16.97;75.84;102018.97;2047002;28;29419;-78
2022/08/12 02:14:12;;;;;;;2.75;1.30;;;;;;;16.98;75.37;102018.91;2055086;28;20125;-76
2022/08/12 02:15:22;;;;;;;2.15;1.17;;;;;;;16.97;76.02;102024.38;2048556;28;37295;-78
2022/08/12 02:17:04;;;;;;;3.22;1.20;;;;;;;16.89;75.95;102030.03;2048093;28;25829;-77
2022/08/12 02:18:47;;;;;;;3.45;1.20;;;;;;;16.84;76.48;102028.41;2047631;28;39120;-77
2022/08/12 02:20:27;;;;;;;2.33;1.48;;;;;;;16.77;76.25;102025.84;2047834;28;20047;-77
2022/08/12 02:21:50;;;;;;;3.25;1.23;;;;;;;16.73;76.65;102029.59;2046890;28;25285;-76
2022/08/12 02:22:56;;;;;;;1.63;1.10;;;;;;;16.77;76.97;102031.25;2049920;28;20043;-76
2022/08/12 02:24:02;;;;;;;3.00;1.40;;;;;;;16.72;76.78;102026.94;2050421;28;33119;-77
2022/08/12 02:25:15;;;;;;;2.92;1.23;;;;;;;16.66;77.20;102033.44;2055161;28;32710;-77
2022/08/12 02:26:21;;;;;;;3.42;1.23;;;;;;;16.63;77.54;102030.81;2047106;28;31307;-76
2022/08/12 02:27:27;;;;;;;3.53;1.42;;;;;;;16.63;77.22;102033.50;2046996;28;28781;-76
2022/08/12 02:28:29;;;;;;;4.00;1.35;;;;;;;16.64;77.24;102024.47;2054717;28;32706;-77
2022/08/12 02:29:32;;;;;;;5.32;1.38;;;;;;;16.61;77.66;102029.97;2053769;28;34957;-77
2022/08/12 02:30:38;;;;;;;4.50;1.10;;;;;;;16.59;77.74;102026.44;2055046;28;28575;-77
2022/08/12 02:31:44;;;;;;;2.72;1.40;;;;;;;16.53;77.37;102027.50;2053801;28;22951;-77
2022/08/12 02:32:50;;;;;;;2.85;1.30;;;;;;;16.50;77.60;102021.31;2047755;28;27526;-77
2022/08/12 02:33:53;;;;;;;3.25;1.60;;;;;;;16.50;78.50;102024.91;2054763;28;21994;-77
2022/08/12 02:34:55;;;;;;;2.40;1.20;;;;;;;16.47;78.06;102022.28;2046994;28;22025;-77
2022/08/12 02:36:03;;;;;;;2.55;1.23;;;;;;;16.45;78.26;102024.16;2047062;28;30438;-78
2022/08/12 02:37:09;;;;;;;4.68;1.52;;;;;;;16.46;78.38;102027.75;2046621;28;26658;-77
2022/08/12 02:38:13;;;;;;;3.80;1.40;;;;;;;16.41;78.46;102022.47;2048432;28;21159;-78
2022/08/12 02:39:17;;;;;;;2.33;1.35;;;;;;;16.36;78.26;102019.91;2038269;29;39698;-77
2022/08/12 02:40:21;;;;;;;2.88;1.52;;;;;;;16.32;78.52;102017.34;2039825;28;28838;-78
2022/08/12 02:41:25;;;;;;;9.07;1.63;;;;;;;16.33;78.49;102016.41;2047131;28;20704;-77
2022/08/12 02:42:33;;;;;;;5.25;1.45;;;;;;;16.29;78.73;102025.53;2047282;28;33454;-78
2022/08/12 02:44:03;;;;;;;3.28;1.38;;;;;;;16.23;78.95;102019.38;2046923;28;29053;-78
2022/08/12 02:45:07;;;;;;;;;;;;;;;16.21;79.53;102023.06;2048367;28;23398;-77
2022/08/12 02:46:14;;;;;;;2.47;1.20;;;;;;;16.21;79.34;102014.97;2046859;28;31770;-78
2022/08/12 02:47:19;;;;;;;4.05;1.63;;;;;;;16.17;79.38;102024.09;2048328;28;20044;-77
2022/08/12 02:48:51;;;;;;;2.00;1.60;;;;;;;16.23;79.71;102013.97;2054870;28;20048;-77
2022/08/12 02:49:59;;;;;;;3.47;1.58;;;;;;;16.21;79.13;102020.38;2047453;28;20090;-77
2022/08/12 02:51:05;;;;;;;2.50;1.83;;;;;;;16.18;79.38;102015.91;2047581;28;39516;-77
2022/08/12 02:52:08;;;;;;;6.03;1.60;;;;;;;16.22;79.91;102022.13;2038707;28;26403;-77
2022/08/12 02:53:12;;;;;;;4.20;1.30;;;;;;;16.18;79.42;102009.63;2039588;28;28982;-77
2022/08/12 02:54:14;;;;;;;4.93;1.30;;;;;;;16.14;79.11;102018.78;2046114;28;40140;-78
2022/08/12 02:55:26;;;;;;;3.25;1.80;;;;;;;16.08;79.44;102014.44;2046573;28;22229;-78
2022/08/12 02:56:30;;;;;;;3.00;1.33;;;;;;;16.09;80.08;102009.91;2052487;28;24462;-76
2022/08/12 02:57:33;;;;;;;3.78;1.83;;;;;;;16.08;79.92;102018.94;2046683;28;30932;-78
2022/08/12 02:58:35;;;;;;;4.82;1.90;;;;;;;16.07;80.08;102015.34;2046802;28;23625;-78
2022/08/12 02:59:38;;;;;;;3.35;1.70;;;;;;;16.05;80.01;102010.94;2054546;28;24757;-77
2022/08/12 03:00:42;;;;;;;2.22;1.52;;;;;;;16.03;80.20;102021.78;2054295;28;35760;-78
2022/08/12 03:01:52;;;;;;;3.65;1.35;;;;;;;15.99;80.06;102020.09;2046616;28;22725;-77
2022/08/12 03:02:59;;;;;;;3.03;1.73;;;;;;;15.95;80.44;102013.91;2046767;28;26867;-77
2022/08/12 03:04:08;;;;;;;2.80;1.60;;;;;;;15.98;80.39;102016.50;2055156;28;31690;-78
2022/08/12 03:05:22;;;;;;;2.17;1.80;;;;;;;15.96;80.53;102023.75;2052648;28;33392;-77
2022/08/12 03:06:27;;;;;;;3.97;2.22;;;;;;;15.97;80.74;102020.16;2056919;28;20047;-77
2022/08/12 03:07:43;;;;;;;2.97;1.30;;;;;;;15.95;80.83;102019.31;2048681;28;20781;-78
2022/08/12 03:09:00;;;;;;;3.80;1.77;;;;;;;15.97;80.90;102017.44;2052665;28;20864;-76
2022/08/12 03:10:09;;;;;;;1.90;1.67;;;;;;;15.95;80.77;102019.31;2053547;28;20043;-78
2022/08/12 03:11:28;;;;;;;3.70;1.80;;;;;;;15.93;80.32;102015.75;2048156;28;28877;-77
2022/08/12 03:12:45;;;;;;;2.72;1.63;;;;;;;15.96;81.58;102021.06;2055816;28;30838;-78
2022/08/12 03:14:00;;;;;;;3.40;2.05;;;;;;;15.91;80.81;102009.50;2048502;28;20167;-77
2022/08/12 03:15:11;;;;;;;2.28;1.73;;;;;;;15.88;80.81;102009.59;2048284;28;28876;-78
2022/08/12 03:16:13;;;;;;;;;;;;;;;15.91;80.92;102016.72;2049437;28;25877;-77
2022/08/12 03:17:30;;;;;;;3.95;1.90;;;;;;;15.88;80.91;102015.00;2048596;28;27629;-77
2022/08/12 03:18:32;;;;;;;2.30;1.50;;;;;;;15.85;81.14;102015.09;2056276;28;31274;-76
2022/08/12 03:19:38;;;;;;;5.90;1.95;;;;;;;15.85;81.35;102012.38;2054926;28;27518;-77
2022/08/12 03:21:00;;;;;;;5.45;2.00;;;;;;;15.89;81.84;102014.06;2056642;28;20051;-77
2022/08/12 03:22:11;;;;;;;3.30;1.70;;;;;;;15.86;81.47;102015.97;2048225;28;20048;-78
2022/08/12 03:23:15;;;;;;;3.22;1.88;;;;;;;15.87;81.45;102015.94;2048195;28;31078;-78
2022/08/12 03:24:26;;;;;;;3.88;1.70;;;;;;;15.95;81.00;102013.91;2047657;28;32416;-78
2022/08/12 03:25:34;;;;;;;5.20;1.80;;;;;;;15.95;80.77;102010.28;2056472;28;20133;-78
2022/08/12 03:26:36;;;;;;;3.38;1.90;;;;;;;15.91;81.07;102014.91;2048029;28;27215;-78
2022/08/12 03:27:50;;;;;;;3.35;1.50;;;;;;;15.88;80.81;102012.31;2047813;28;30989;-77
2022/08/12 03:28:55;;;;;;;5.72;2.30;;;;;;;15.91;81.01;102016.72;2056507;28;23420;-79
2022/08/12 03:29:59;;;;;;;5.45;1.80;;;;;;;15.89;80.83;102018.59;2047585;28;29961;-78
2022/08/12 03:31:07;;;;;;;5.47;1.88;;;;;;;15.88;81.48;102016.81;2048132;28;30066;-78
2022/08/12 03:32:13;;;;;;;3.22;1.60;;;;;;;15.83;80.53;102015.13;2047586;28;31584;-77
2022/08/12 03:33:41;;;;;;;5.22;2.20;;;;;;;15.79;80.73;102008.03;2049239;28;20833;-78
2022/08/12 03:34:44;;;;;;;3.60;1.70;;;;;;;15.75;80.79;102006.34;2048785;28;36232;-78
2022/08/12 03:35:48;;;;;;;2.17;1.70;;;;;;;15.72;80.98;102009.09;2055329;28;31880;-79
2022/08/12 03:36:53;;;;;;;2.97;1.92;;;;;;;15.72;81.34;102011.81;2047877;28;24751;-78
2022/08/12 03:38:00;;;;;;;4.47;1.95;;;;;;;15.68;81.33;102010.09;2049428;28;20036;-79
2022/08/12 03:41:56;;;;;;;2.08;1.60;;;;;;;15.59;81.57;102016.63;2048814;28;20085;-76
2022/08/12 04:00:57;;;;;;;2.00;1.73;;;;;;;15.31;83.02;102010.16;2048804;28;23866;-77
2022/08/12 04:01:59;;;;;;;4.45;2.00;;;;;;;15.36;83.41;102008.25;2048579;28;33237;-77
2022/08/12 04:03:01;;;;;;;2.80;2.10;;;;;;;15.37;83.25;102015.44;2048174;28;37576;-78
2022/08/12 04:04:03;;;;;;;3.22;1.85;;;;;;;15.38;83.32;102006.38;2047320;28;39982;-78
2022/08/12 04:05:12;;;;;;;5.20;2.20;;;;;;;15.40;83.14;102009.97;2040405;28;20929;-78
2022/08/12 04:06:15;;;;;;;3.45;2.10;;;;;;;15.46;82.98;102015.19;2049278;28;23518;-79
2022/08/12 04:07:17;;;;;;;3.47;2.25;;;;;;;15.46;82.59;102004.41;2055034;28;24392;-77
2022/08/12 04:08:25;;;;;;;3.72;2.10;;;;;;;15.46;82.49;102009.78;2048343;28;30007;-79
2022/08/12 04:09:28;;;;;;;5.28;2.25;;;;;;;15.47;82.94;102006.19;2055671;28;30269;-78
2022/08/12 04:13:20;;;;;;;3.35;2.10;;;;;;;15.51;82.25;102001.59;2050746;28;37830;-78
2022/08/12 04:14:26;;;;;;;4.70;2.38;;;;;;;15.57;82.36;101998.72;2048251;28;31226;-79
2022/08/12 04:15:30;;;;;;;3.88;1.88;;;;;;;15.55;82.22;102003.28;2048288;28;28919;-78
2022/08/12 04:16:33;;;;;;;4.20;2.17;;;;;;;15.55;82.21;101997.88;2047760;28;28109;-78
2022/08/12 04:17:38;;;;;;;4.25;1.70;;;;;;;15.56;82.19;102005.94;2055160;28;31380;-78
2022/08/12 04:18:43;;;;;;;4.93;1.83;;;;;;;15.60;82.78;102001.34;2047525;28;23840;-77
2022/08/12 04:19:47;;;;;;;2.58;2.00;;;;;;;15.59;81.77;102003.13;2040207;28;20430;-77
2022/08/12 04:20:49;;;;;;;3.78;1.60;;;;;;;15.65;82.36;101997.56;2047708;28;24658;-79
2022/08/12 04:21:54;;;;;;;4.32;2.08;;;;;;;15.66;81.43;101996.63;2048160;28;21565;-78
2022/08/12 04:23:07;;;;;;;2.25;1.73;;;;;;;15.71;81.96;101998.34;2048714;28;23177;-78
2022/08/12 04:24:10;;;;;;;4.13;1.83;;;;;;;15.74;81.65;101998.22;2055272;28;27160;-78
2022/08/12 04:25:13;;;;;;;3.25;1.70;;;;;;;15.75;81.50;101998.22;2054972;28;31816;-77
2022/08/12 04:26:15;;;;;;;3.05;2.08;;;;;;;15.79;81.16;102001.72;2048002;28;30414;-79
2022/08/12 04:27:16;;;;;;;3.40;1.80;;;;;;;15.82;81.04;102005.22;2048567;28;28530;-77
2022/08/12 04:28:26;;;;;;;4.05;1.55;;;;;;;15.84;81.12;102006.09;2048010;28;28099;-79
2022/08/12 04:29:28;;;;;;;3.75;1.88;;;;;;;15.86;81.13;101994.34;2048506;28;27604;-78
2022/08/12 04:30:50;;;;;;;5.97;2.05;;;;;;;15.96;80.41;102003.97;2048510;28;20036;-79
2022/08/12 04:31:54;;;;;;;2.53;1.60;;;;;;;16.07;80.37;101999.16;2055637;28;32496;-78
2022/08/12 04:32:57;;;;;;;3.75;2.13;;;;;;;16.35;79.75;101996.53;2055004;28;20899;-80
2022/08/12 04:33:59;;;;;;;4.07;1.95;;;;;;;16.69;78.85;101998.19;2048565;28;23800;-78
2022/08/12 04:35:02;;;;;;;6.47;1.92;;;;;;;17.10;76.55;101987.88;2047994;28;27143;-78
2022/08/12 04:36:05;;;;;;;3.38;1.63;;;;;;;17.52;74.80;101991.88;2055904;28;20039;-80
2022/08/12 04:37:06;;;;;;;3.63;1.50;;;;;;;17.93;73.03;101993.09;2055136;28;29936;-78
2022/08/12 04:38:10;;;;;;;4.38;1.55;;;;;;;18.31;70.72;101985.34;2048150;28;27544;-78
2022/08/12 04:39:12;;;;;;;2.78;1.80;;;;;;;18.73;69.98;101990.97;2047279;28;27702;-78
2022/08/12 04:40:16;;;;;;;1.70;1.50;;;;;;;19.12;67.88;101979.44;2047522;28;25192;-78
2022/08/12 04:41:20;;;;;;;3.95;1.73;;;;;;;19.44;66.87;101980.78;2055544;28;20899;-78
2022/08/12 04:42:24;;;;;;;2.83;1.60;;;;;;;19.86;65.85;101985.28;2047582;28;29413;-78
2022/08/12 04:43:28;;;;;;;2.50;1.50;;;;;;;20.25;63.56;101983.53;2047315;28;33664;-79
2022/08/12 04:44:52;;;;;;;2.20;1.30;;;;;;;20.66;62.11;101984.28;2048404;28;20051;-78
2022/08/12 04:45:55;;;;;;;2.88;1.50;;;;;;;21.07;60.92;101988.66;2047912;28;30914;-78
2022/08/12 04:46:57;;;;;;;2.85;1.45;;;;;;;21.42;60.27;101988.69;2048213;28;24965;-78
2022/08/12 04:48:00;;;;;;;5.03;1.40;;;;;;;21.76;59.27;101974.19;2048040;28;34908;-79
2022/08/12 04:49:04;;;;;;;3.60;1.25;;;;;;;22.15;57.63;101983.03;2055443;28;30283;-79
2022/08/12 04:50:07;;;;;;;5.20;1.25;;;;;;;22.53;56.77;101977.31;2055290;28;20044;-78
2022/08/12 04:51:33;;;;;;;4.13;1.35;;;;;;;22.85;55.22;101975.44;2055757;28;20035;-79
2022/08/12 04:52:36;;;;;;;3.03;1.05;;;;;;;23.27;54.82;101973.88;2048103;28;20027;-78
2022/08/12 04:53:42;;;;;;;4.38;1.35;;;;;;;23.53;53.06;101975.06;2047100;28;32962;-79
2022/08/12 04:54:46;;;;;;;1.92;1.10;;;;;;;23.60;52.76;101981.91;2048550;28;20840;-78
2022/08/12 04:55:48;;;;;;;4.75;1.20;;;;;;;23.94;51.93;101978.94;2047937;28;26897;-79
2022/08/12 04:56:52;;;;;;;1.90;1.10;;;;;;;24.25;50.84;101977.88;2048010;28;22632;-78
2022/08/12 04:58:08;;;;;;;2.72;0.93;;;;;;;24.47;50.48;101971.88;2048635;28;20044;-79
2022/08/12 04:59:14;;;;;;;2.90;1.27;;;;;;;24.67;49.54;101970.59;2047774;28;26662;-79
2022/08/12 05:00:16;;;;;;;4.90;1.33;;;;;;;24.89;48.29;101969.16;2055287;28;28465;-78
2022/08/12 05:01:20;;;;;;;2.30;1.15;;;;;;;25.17;48.09;101979.16;2054666;28;31117;-79
2022/08/12 05:02:22;;;;;;;2.92;1.30;;;;;;;25.33;47.65;101970.78;2047917;28;29546;-79
2022/08/12 05:03:30;;;;;;;5.32;1.42;;;;;;;25.30;45.57;101973.72;2047751;28;28652;-78
2022/08/12 05:04:48;;;;;;;4.97;1.48;;;;;;;25.17;46.06;101975.53;2048283;28;29463;-78
2022/08/12 05:05:50;;;;;;;2.50;1.50;;;;;;;25.61;46.07;101975.22;2047408;28;30333;-79
2022/08/12 05:06:52;;;;;;;3.20;1.27;;;;;;;25.83;46.05;101969.09;2055425;28;25181;-79
2022/08/12 05:07:53;;;;;;;1.67;1.13;;;;;;;26.09;44.41;101969.09;2054676;28;29189;-79
2022/08/12 05:08:59;;;;;;;3.70;1.23;;;;;;;26.21;44.05;101970.97;2048517;28;20098;-79
2022/08/12 05:10:02;;;;;;;4.18;1.48;;;;;;;26.41;44.28;101965.88;2047153;28;35854;-78
2022/08/12 05:11:05;;;;;;;3.35;1.48;;;;;;;26.75;43.80;101967.00;2047695;28;30163;-79
2022/08/12 05:12:07;;;;;;;2.00;1.23;;;;;;;26.72;42.66;101967.28;2055089;28;27156;-79
2022/08/12 05:13:21;;;;;;;3.50;1.40;;;;;;;26.51;43.75;101969.72;2054977;28;37394;-77
2022/08/12 05:14:23;;;;;;;4.60;1.75;;;;;;;26.26;44.35;101970.66;2055283;28;23919;-78
2022/08/12 05:15:25;;;;;;;3.00;1.38;;;;;;;26.84;42.76;101966.31;2053446;28;38079;-79
2022/08/12 05:16:29;;;;;;;2.55;1.35;;;;;;;27.33;42.04;101971.81;2047831;28;20693;-81
2022/08/12 05:17:34;;;;;;;4.20;1.50;;;;;;;27.43;39.62;101962.72;2055353;28;29296;-80
2022/08/12 05:18:38;;;;;;;2.05;1.30;;;;;;;27.47;39.07;101965.25;2046556;28;36610;-79
2022/08/12 05:19:41;;;;;;;4.82;1.65;;;;;;;27.60;39.13;101964.19;2040029;28;30568;-79
2022/08/12 05:20:47;;;;;;;4.78;1.73;;;;;;;27.68;40.53;101959.94;2046624;28;38318;-79
2022/08/12 05:21:48;;;;;;;2.75;1.20;;;;;;;27.43;39.63;101968.25;2055335;28;29528;-78
2022/08/12 05:23:03;;;;;;;6.70;1.50;;;;;;;27.72;39.95;101967.81;2046878;28;27933;-79
2022/08/12 05:24:13;;;;;;;4.85;1.55;;;;;;;27.77;39.07;101970.22;2047493;28;30347;-79
2022/08/12 05:25:14;;;;;;;3.42;1.33;;;;;;;27.78;39.50;101969.19;2048282;28;20229;-79
2022/08/12 05:26:17;;;;;;;2.10;1.25;;;;;;;27.73;40.20;101972.31;2047580;28;30131;-79
2022/08/12 05:27:21;;;;;;;5.05;1.40;;;;;;;27.85;39.20;101977.84;2048014;28;23845;-79
2022/08/12 05:28:27;;;;;;;2.35;1.70;;;;;;;27.46;39.29;101977.25;2048034;28;20055;-79
2022/08/12 05:29:30;;;;;;;2.53;1.42;;;;;;;27.45;38.58;101978.25;2047910;28;24650;-79
2022/08/12 05:30:52;;;;;;;3.22;1.73;;;;;;;26.29;40.91;101986.91;2048390;28;20829;-79
2022/08/12 05:31:55;;;;;;;2.33;1.40;;;;;;;26.02;42.72;101979.69;2047525;28;20047;-79
2022/08/12 05:32:57;;;;;;;4.38;2.60;;;;;;;26.11;42.03;101989.09;2046858;28;32087;-79
2022/08/12 05:33:59;;;;;;;3.63;1.75;;;;;;;25.57;42.54;101992.88;2048191;28;20857;-79
2022/08/12 05:35:09;;;;;;;3.08;1.80;;;;;;;25.68;43.12;101987.53;2047287;28;26437;-78
2022/08/12 05:36:14;;;;;;;2.67;1.73;;;;;;;26.08;42.51;101981.97;2048215;28;28793;-79
2022/08/12 05:37:15;;;;;;;4.63;1.60;;;;;;;26.40;40.96;101984.25;2055139;28;23178;-79
2022/08/12 05:39:41;;;;;;;4.03;1.58;;;;;;;26.68;40.49;101984.97;2047326;28;29203;-79
2022/08/12 05:40:43;;;;;;;3.67;1.50;;;;;;;26.90;39.50;101988.84;2047569;28;37124;-78
2022/08/12 05:41:44;;;;;;;4.78;1.70;;;;;;;26.70;40.71;101990.34;2047095;28;29331;-79
2022/08/12 05:42:46;;;;;;;2.33;1.48;;;;;;;27.36;39.91;101979.84;2047519;28;28815;-78
2022/08/12 05:43:55;;;;;;;4.95;1.55;;;;;;;27.08;40.05;101983.81;2047534;28;28162;-79
2022/08/12 05:44:58;;;;;;;5.68;1.88;;;;;;;27.53;39.43;101984.00;2048161;28;22507;-78
2022/08/12 05:46:00;;;;;;;5.03;1.73;;;;;;;27.72;38.58;101977.94;2047315;28;27782;-79
2022/08/12 05:47:03;;;;;;;3.47;1.60;;;;;;;27.99;37.72;101986.78;2048056;28;23492;-79
2022/08/12 05:48:05;;;;;;;4.75;1.50;;;;;;;27.70;38.72;101980.81;2048073;28;20040;-78
2022/08/12 05:49:12;;;;;;;3.90;1.70;;;;;;;28.26;37.96;101984.66;2047364;28;20082;-78
2022/08/12 05:50:14;;;;;;;4.78;1.75;;;;;;;27.54;39.95;101985.78;2047687;28;22531;-80
2022/08/12 05:51:17;;;;;;;3.15;1.60;;;;;;;28.20;37.54;101983.28;2047169;28;30661;-79
2022/08/12 05:52:21;;;;;;;2.67;1.70;;;;;;;28.16;37.57;101990.94;2047443;28;27295;-78
2022/08/12 05:53:23;;;;;;;3.38;1.92;;;;;;;27.73;38.45;101986.09;2047191;28;20114;-79
2022/08/12 05:54:25;;;;;;;8.63;1.80;;;;;;;28.14;37.09;101994.81;2046677;28;24601;-79
2022/08/12 05:55:46;;;;;;;4.50;1.77;;;;;;;28.97;36.41;101984.34;2047510;28;20876;-78
2022/08/12 05:56:48;;;;;;;4.03;1.63;;;;;;;29.02;36.10;101985.72;2054858;28;31622;-78
2022/08/12 05:57:56;;;;;;;5.05;1.65;;;;;;;29.19;35.50;101984.28;2047181;28;20043;-80
2022/08/12 05:59:00;;;;;;;4.30;1.55;;;;;;;29.64;35.19;101983.19;2047525;28;33204;-79
2022/08/12 06:00:05;;;;;;;4.55;1.65;;;;;;;29.31;35.71;101986.00;2054204;28;37695;-79
2022/08/12 06:01:13;;;;;;;4.63;1.67;;;;;;;29.47;35.29;101984.69;2053123;28;20055;-79
2022/08/12 06:02:37;;;;;;;4.55;1.67;;;;;;;29.58;34.49;101978.22;2047883;28;20031;-78
2022/08/12 06:03:40;;;;;;;2.38;1.42;;;;;;;29.79;33.81;101980.97;2048006;28;21051;-79
2022/08/12 06:04:42;;;;;;;3.25;1.73;;;;;;;29.85;34.22;101981.31;2053071;28;32259;-79
2022/08/12 06:05:45;;;;;;;3.55;1.80;;;;;;;29.84;34.45;101981.47;2054178;28;25690;-79
2022/08/12 06:06:56;;;;;;;6.63;1.65;;;;;;;29.68;34.09;101981.91;2046355;28;23184;-78
2022/08/12 06:07:59;;;;;;;5.75;1.63;;;;;;;29.57;34.90;101985.59;2047458;28;20141;-83
2022/08/12 06:09:03;;;;;;;5.60;1.70;;;;;;;29.74;34.43;101986.91;2055040;28;31977;-75
2022/08/12 06:10:10;;;;;;;4.90;1.60;;;;;;;29.99;34.16;101982.88;2053695;28;20043;-76
2022/08/12 06:11:14;;;;;;;4.05;1.20;;;;;;;29.88;35.01;101983.81;2047268;28;20048;-75
2022/08/12 06:12:22;;;;;;;5.05;1.77;;;;;;;29.83;34.19;101979.72;2046720;28;27449;-75
2022/08/12 06:13:26;;;;;;;6.45;2.08;;;;;;;29.92;34.08;101983.56;2055398;28;24759;-76
2022/08/12 06:14:30;;;;;;;4.40;1.58;;;;;;;29.91;34.38;101981.78;2054753;28;26462;-74
2022/08/12 06:15:36;;;;;;;6.00;1.70;;;;;;;29.61;34.70;101983.44;2053312;28;23596;-77
2022/08/12 06:16:38;;;;;;;4.38;1.77;;;;;;;29.26;35.78;101985.50;2051907;28;28645;-75
2022/08/12 06:17:40;;;;;;;7.15;1.90;;;;;;;30.31;33.81;101986.50;2054838;28;20047;-82
2022/08/12 06:18:42;;;;;;;3.30;1.58;;;;;;;30.35;33.67;101991.66;2053357;28;38271;-77
2022/08/12 06:19:44;;;;;;;7.15;1.98;;;;;;;30.88;33.00;101984.06;2054232;28;27933;-77
2022/08/12 06:21:14;;;;;;;2.90;1.83;;;;;;;30.60;32.66;101987.50;2055310;28;20086;-77
2022/08/12 06:22:16;;;;;;;3.97;2.00;;;;;;;30.78;32.21;101990.47;2054646;28;31093;-76
2022/08/12 06:23:19;;;;;;;4.10;1.90;;;;;;;30.51;32.62;101990.22;2048333;28;20123;-79
2022/08/12 06:24:23;;;;;;;5.78;1.60;;;;;;;30.40;33.05;101992.09;2046649;28;35186;-79
2022/08/12 06:25:27;;;;;;;3.03;1.80;;;;;;;29.87;33.82;101997.75;2054367;28;28154;-79
2022/08/12 06:26:29;;;;;;;4.90;1.77;;;;;;;30.76;32.31;101994.38;2054651;28;39013;-79
2022/08/12 06:27:33;;;;;;;4.28;2.03;;;;;;;29.83;33.94;101990.78;2053886;28;32699;-78
2022/08/12 06:28:35;;;;;;;5.13;1.67;;;;;;;30.24;32.78;101995.34;2054498;28;20035;-77
2022/08/12 06:29:37;;;;;;;4.15;2.05;;;;;;;30.42;32.82;101992.84;2054940;28;23202;-79
2022/08/12 06:31:02;;;;;;;5.05;1.60;;;;;;;30.44;32.59;101996.34;2055453;28;20050;-77
2022/08/12 06:32:25;;;;;;;11.27;1.80;;;;;;;30.82;32.26;101986.38;2055370;28;20043;-80
2022/08/12 06:33:29;;;;;;;5.55;1.60;;;;;;;30.91;32.34;101986.56;2055187;28;20161;-79
2022/08/12 06:34:51;;;;;;;8.32;1.88;;;;;;;31.00;32.10;101978.28;2055299;28;20866;-80
2022/08/12 06:36:19;;;;;;;3.20;1.50;;;;;;;29.78;33.31;101998.59;2055646;28;20843;-80
2022/08/12 06:37:22;;;;;;;3.05;1.80;;;;;;;30.91;32.41;101981.03;2054805;28;20051;-78
2022/08/12 06:38:28;;;;;;;4.47;1.48;;;;;;;31.15;31.43;101987.03;2054663;28;24357;-81
2022/08/12 06:39:29;;;;;;;7.88;2.20;;;;;;;31.23;31.30;101978.03;2054928;28;20054;-80
2022/08/12 06:43:32;;;;;;;;;;;;;;;31.32;31.17;101979.91;2054956;28;20738;-78
2022/08/12 06:44:54;;;;;;;4.82;1.73;;;;;;;31.93;30.70;101984.22;2055511;28;19926;-78
2022/08/12 06:45:56;;;;;;;2.42;1.60;;;;;;;31.82;30.05;101989.06;2054444;28;30529;-77